sensor_id;sensor_type;location;lat;lon;timestamp;P1;durP1;ratioP1;P2;durP2;ratioP2
51686;SDS011;37774;52.192;4.584;2023-05-07T00:00:20;32.55;;;16.15;;
51686;SDS011;37774;52.192;4.584;2023-05-07T00:03:05;23.25;;;13.63;;
51686;SDS011;37774;52.192;4.584;2023-05-07T00:05:51;27.52;;;14.88;;
51686;SDS011;37774;52.192;4.584;2023-05-07T00:08:38;25.83;;;13.82;;
51686;SDS011;37774;52.192;4.584;2023-05-07T00:11:23;36.03;;;14.43;;
51686;SDS011;37774;52.192;4.584;2023-05-07T00:14:09;34.75;;;15.05;;
51686;SDS011;37774;52.192;4.584;2023-05-07T00:16:55;33.90;;;16.85;;
51686;SDS011;37774;52.192;4.584;2023-05-07T00:19:40;29.05;;;16.52;;
51686;SDS011;37774;52.192;4.584;2023-05-07T00:22:26;28.90;;;15.23;;
51686;SDS011;37774;52.192;4.584;2023-05-07T00:25:15;28.75;;;15.50;;
51686;SDS011;37774;52.192;4.584;2023-05-07T00:28:00;31.58;;;17.10;;
51686;SDS011;37774;52.192;4.584;2023-05-07T00:30:47;27.10;;;15.30;;
51686;SDS011;37774;52.192;4.584;2023-05-07T00:33:33;29.30;;;15.07;;
51686;SDS011;37774;52.192;4.584;2023-05-07T00:36:18;33.35;;;16.55;;
51686;SDS011;37774;52.192;4.584;2023-05-07T00:39:04;29.05;;;17.38;;
51686;SDS011;37774;52.192;4.584;2023-05-07T00:41:51;27.88;;;15.52;;
51686;SDS011;37774;52.192;4.584;2023-05-07T00:44:36;37.70;;;17.23;;
51686;SDS011;37774;52.192;4.584;2023-05-07T00:47:21;34.20;;;18.58;;
51686;SDS011;37774;52.192;4.584;2023-05-07T00:50:07;36.33;;;19.13;;
51686;SDS011;37774;52.192;4.584;2023-05-07T00:52:54;40.88;;;19.33;;
51686;SDS011;37774;52.192;4.584;2023-05-07T00:55:39;39.05;;;19.33;;
51686;SDS011;37774;52.192;4.584;2023-05-07T00:58:26;34.70;;;18.08;;
51686;SDS011;37774;52.192;4.584;2023-05-07T01:01:12;41.45;;;17.88;;
51686;SDS011;37774;52.192;4.584;2023-05-07T01:03:59;35.17;;;17.67;;
51686;SDS011;37774;52.192;4.584;2023-05-07T01:06:45;34.60;;;18.40;;
51686;SDS011;37774;52.192;4.584;2023-05-07T01:09:31;33.60;;;17.48;;
51686;SDS011;37774;52.192;4.584;2023-05-07T01:12:19;32.75;;;17.27;;
51686;SDS011;37774;52.192;4.584;2023-05-07T01:15:07;33.95;;;18.27;;
51686;SDS011;37774;52.192;4.584;2023-05-07T01:17:54;35.42;;;18.77;;
51686;SDS011;37774;52.192;4.584;2023-05-07T01:20:41;34.72;;;19.00;;
51686;SDS011;37774;52.192;4.584;2023-05-07T01:23:28;42.78;;;20.00;;
51686;SDS011;37774;52.192;4.584;2023-05-07T01:26:15;41.42;;;20.95;;
51686;SDS011;37774;52.192;4.584;2023-05-07T01:29:03;42.47;;;21.58;;
51686;SDS011;37774;52.192;4.584;2023-05-07T01:31:49;49.35;;;22.02;;
51686;SDS011;37774;52.192;4.584;2023-05-07T01:37:22;46.35;;;20.63;;
51686;SDS011;37774;52.192;4.584;2023-05-07T01:40:10;54.13;;;24.15;;
51686;SDS011;37774;52.192;4.584;2023-05-07T01:42:56;44.58;;;21.23;;
51686;SDS011;37774;52.192;4.584;2023-05-07T01:45:42;51.88;;;22.70;;
51686;SDS011;37774;52.192;4.584;2023-05-07T01:48:28;42.92;;;21.40;;
51686;SDS011;37774;52.192;4.584;2023-05-07T01:51:14;51.22;;;21.65;;
51686;SDS011;37774;52.192;4.584;2023-05-07T01:53:59;48.38;;;21.20;;
51686;SDS011;37774;52.192;4.584;2023-05-07T01:56:46;48.40;;;22.58;;
51686;SDS011;37774;52.192;4.584;2023-05-07T02:02:17;54.05;;;21.05;;
51686;SDS011;37774;52.192;4.584;2023-05-07T02:05:03;48.83;;;22.13;;
51686;SDS011;37774;52.192;4.584;2023-05-07T02:07:49;47.50;;;21.70;;
51686;SDS011;37774;52.192;4.584;2023-05-07T02:10:34;50.33;;;23.63;;
51686;SDS011;37774;52.192;4.584;2023-05-07T02:13:21;56.83;;;22.52;;
51686;SDS011;37774;52.192;4.584;2023-05-07T02:16:08;48.88;;;22.38;;
51686;SDS011;37774;52.192;4.584;2023-05-07T02:18:54;51.95;;;23.42;;
51686;SDS011;37774;52.192;4.584;2023-05-07T02:21:40;41.70;;;20.85;;
51686;SDS011;37774;52.192;4.584;2023-05-07T02:24:25;45.22;;;23.17;;
51686;SDS011;37774;52.192;4.584;2023-05-07T02:27:11;48.03;;;22.52;;
51686;SDS011;37774;52.192;4.584;2023-05-07T02:29:58;51.35;;;22.38;;
51686;SDS011;37774;52.192;4.584;2023-05-07T02:32:43;44.08;;;22.73;;
51686;SDS011;37774;52.192;4.584;2023-05-07T02:35:28;53.55;;;23.27;;
51686;SDS011;37774;52.192;4.584;2023-05-07T02:38:14;47.00;;;21.65;;
51686;SDS011;37774;52.192;4.584;2023-05-07T02:41:00;41.00;;;20.00;;
51686;SDS011;37774;52.192;4.584;2023-05-07T02:43:45;44.50;;;21.38;;
51686;SDS011;37774;52.192;4.584;2023-05-07T02:46:32;47.75;;;21.58;;
51686;SDS011;37774;52.192;4.584;2023-05-07T02:49:17;43.58;;;21.25;;
51686;SDS011;37774;52.192;4.584;2023-05-07T02:52:03;47.38;;;22.17;;
51686;SDS011;37774;52.192;4.584;2023-05-07T02:54:49;43.28;;;20.75;;
51686;SDS011;37774;52.192;4.584;2023-05-07T02:57:34;48.10;;;20.73;;
51686;SDS011;37774;52.192;4.584;2023-05-07T03:00:20;38.72;;;18.48;;
51686;SDS011;37774;52.192;4.584;2023-05-07T03:03:07;42.47;;;21.47;;
51686;SDS011;37774;52.192;4.584;2023-05-07T03:05:53;40.80;;;20.75;;
51686;SDS011;37774;52.192;4.584;2023-05-07T03:08:38;39.65;;;17.92;;
51686;SDS011;37774;52.192;4.584;2023-05-07T03:11:24;37.38;;;20.00;;
51686;SDS011;37774;52.192;4.584;2023-05-07T03:14:09;34.88;;;19.23;;
51686;SDS011;37774;52.192;4.584;2023-05-07T03:16:55;35.15;;;17.48;;
51686;SDS011;37774;52.192;4.584;2023-05-07T03:19:42;37.85;;;19.45;;
51686;SDS011;37774;52.192;4.584;2023-05-07T03:22:27;34.20;;;18.77;;
51686;SDS011;37774;52.192;4.584;2023-05-07T03:25:13;38.92;;;18.98;;
51686;SDS011;37774;52.192;4.584;2023-05-07T03:27:59;34.28;;;18.00;;
51686;SDS011;37774;52.192;4.584;2023-05-07T03:30:44;34.40;;;17.48;;
51686;SDS011;37774;52.192;4.584;2023-05-07T03:33:29;36.28;;;16.75;;
51686;SDS011;37774;52.192;4.584;2023-05-07T03:36:19;31.13;;;16.95;;
51686;SDS011;37774;52.192;4.584;2023-05-07T03:39:04;32.10;;;17.55;;
51686;SDS011;37774;52.192;4.584;2023-05-07T03:41:50;37.08;;;17.58;;
51686;SDS011;37774;52.192;4.584;2023-05-07T03:44:36;29.02;;;16.55;;
51686;SDS011;37774;52.192;4.584;2023-05-07T03:47:21;39.10;;;16.75;;
51686;SDS011;37774;52.192;4.584;2023-05-07T03:50:07;30.20;;;16.17;;
51686;SDS011;37774;52.192;4.584;2023-05-07T03:52:55;35.28;;;17.63;;
51686;SDS011;37774;52.192;4.584;2023-05-07T03:55:40;28.08;;;16.35;;
51686;SDS011;37774;52.192;4.584;2023-05-07T03:58:26;30.60;;;16.35;;
51686;SDS011;37774;52.192;4.584;2023-05-07T04:01:12;36.85;;;18.15;;
51686;SDS011;37774;52.192;4.584;2023-05-07T04:03:57;30.08;;;16.25;;
51686;SDS011;37774;52.192;4.584;2023-05-07T04:06:42;29.25;;;15.07;;
51686;SDS011;37774;52.192;4.584;2023-05-07T04:09:29;30.27;;;16.60;;
51686;SDS011;37774;52.192;4.584;2023-05-07T04:12:15;25.77;;;15.20;;
51686;SDS011;37774;52.192;4.584;2023-05-07T04:15:00;28.85;;;15.60;;
51686;SDS011;37774;52.192;4.584;2023-05-07T04:17:46;28.52;;;14.57;;
51686;SDS011;37774;52.192;4.584;2023-05-07T04:20:33;31.80;;;15.23;;
51686;SDS011;37774;52.192;4.584;2023-05-07T04:23:19;28.17;;;15.10;;
51686;SDS011;37774;52.192;4.584;2023-05-07T04:26:06;25.92;;;14.65;;
51686;SDS011;37774;52.192;4.584;2023-05-07T04:28:51;24.42;;;14.70;;
51686;SDS011;37774;52.192;4.584;2023-05-07T04:31:37;35.15;;;15.23;;
51686;SDS011;37774;52.192;4.584;2023-05-07T04:34:22;26.20;;;13.45;;
51686;SDS011;37774;52.192;4.584;2023-05-07T04:37:08;26.02;;;13.60;;
51686;SDS011;37774;52.192;4.584;2023-05-07T04:39:53;30.42;;;15.52;;
51686;SDS011;37774;52.192;4.584;2023-05-07T04:42:40;26.58;;;13.93;;
51686;SDS011;37774;52.192;4.584;2023-05-07T04:45:25;23.08;;;13.75;;
51686;SDS011;37774;52.192;4.584;2023-05-07T04:48:11;27.00;;;13.73;;
51686;SDS011;37774;52.192;4.584;2023-05-07T04:50:58;29.17;;;13.70;;
51686;SDS011;37774;52.192;4.584;2023-05-07T04:53:43;24.75;;;15.02;;
51686;SDS011;37774;52.192;4.584;2023-05-07T04:56:29;18.40;;;13.27;;
51686;SDS011;37774;52.192;4.584;2023-05-07T04:59:16;22.67;;;13.20;;
51686;SDS011;37774;52.192;4.584;2023-05-07T05:02:03;28.08;;;14.20;;
51686;SDS011;37774;52.192;4.584;2023-05-07T05:04:49;26.17;;;14.57;;
51686;SDS011;37774;52.192;4.584;2023-05-07T05:07:34;24.20;;;14.23;;
51686;SDS011;37774;52.192;4.584;2023-05-07T05:10:21;25.52;;;13.68;;
51686;SDS011;37774;52.192;4.584;2023-05-07T05:13:07;26.50;;;12.75;;
51686;SDS011;37774;52.192;4.584;2023-05-07T05:15:54;26.67;;;13.70;;
51686;SDS011;37774;52.192;4.584;2023-05-07T05:18:39;21.42;;;13.07;;
51686;SDS011;37774;52.192;4.584;2023-05-07T05:21:25;26.30;;;14.02;;
51686;SDS011;37774;52.192;4.584;2023-05-07T05:24:10;28.73;;;15.15;;
51686;SDS011;37774;52.192;4.584;2023-05-07T05:26:56;25.42;;;14.45;;
51686;SDS011;37774;52.192;4.584;2023-05-07T05:29:43;26.30;;;13.77;;
51686;SDS011;37774;52.192;4.584;2023-05-07T05:32:30;29.55;;;15.25;;
51686;SDS011;37774;52.192;4.584;2023-05-07T05:35:15;32.33;;;15.55;;
51686;SDS011;37774;52.192;4.584;2023-05-07T05:38:00;26.15;;;16.15;;
51686;SDS011;37774;52.192;4.584;2023-05-07T05:40:46;26.30;;;15.30;;
51686;SDS011;37774;52.192;4.584;2023-05-07T05:43:31;31.00;;;15.70;;
51686;SDS011;37774;52.192;4.584;2023-05-07T05:46:17;28.63;;;15.20;;
51686;SDS011;37774;52.192;4.584;2023-05-07T05:49:04;26.85;;;15.50;;
51686;SDS011;37774;52.192;4.584;2023-05-07T05:51:49;27.17;;;15.77;;
51686;SDS011;37774;52.192;4.584;2023-05-07T05:54:35;25.48;;;15.00;;
51686;SDS011;37774;52.192;4.584;2023-05-07T05:57:20;25.02;;;15.00;;
51686;SDS011;37774;52.192;4.584;2023-05-07T06:00:06;24.27;;;14.45;;
51686;SDS011;37774;52.192;4.584;2023-05-07T06:02:52;29.10;;;15.02;;
51686;SDS011;37774;52.192;4.584;2023-05-07T06:05:39;25.90;;;15.35;;
51686;SDS011;37774;52.192;4.584;2023-05-07T06:08:24;22.65;;;12.65;;
51686;SDS011;37774;52.192;4.584;2023-05-07T06:11:09;28.55;;;14.93;;
51686;SDS011;37774;52.192;4.584;2023-05-07T06:13:55;25.98;;;13.82;;
51686;SDS011;37774;52.192;4.584;2023-05-07T06:16:40;30.88;;;15.32;;
51686;SDS011;37774;52.192;4.584;2023-05-07T06:19:26;31.77;;;16.45;;
51686;SDS011;37774;52.192;4.584;2023-05-07T06:22:13;33.72;;;16.55;;
51686;SDS011;37774;52.192;4.584;2023-05-07T06:24:58;31.50;;;16.63;;
51686;SDS011;37774;52.192;4.584;2023-05-07T06:27:44;29.70;;;16.23;;
51686;SDS011;37774;52.192;4.584;2023-05-07T06:30:29;28.33;;;15.55;;
51686;SDS011;37774;52.192;4.584;2023-05-07T06:33:15;31.05;;;16.95;;
51686;SDS011;37774;52.192;4.584;2023-05-07T06:36:00;33.47;;;16.95;;
51686;SDS011;37774;52.192;4.584;2023-05-07T06:38:47;28.88;;;16.45;;
51686;SDS011;37774;52.192;4.584;2023-05-07T06:41:32;32.80;;;17.50;;
51686;SDS011;37774;52.192;4.584;2023-05-07T06:44:19;38.35;;;19.58;;
51686;SDS011;37774;52.192;4.584;2023-05-07T06:47:04;38.35;;;19.20;;
51686;SDS011;37774;52.192;4.584;2023-05-07T06:49:50;36.65;;;17.63;;
51686;SDS011;37774;52.192;4.584;2023-05-07T06:52:35;30.50;;;17.98;;
51686;SDS011;37774;52.192;4.584;2023-05-07T06:55:22;41.65;;;18.85;;
51686;SDS011;37774;52.192;4.584;2023-05-07T06:58:08;31.90;;;19.10;;
51686;SDS011;37774;52.192;4.584;2023-05-07T07:00:53;37.88;;;19.95;;
51686;SDS011;37774;52.192;4.584;2023-05-07T07:03:38;37.83;;;19.58;;
51686;SDS011;37774;52.192;4.584;2023-05-07T07:06:24;37.10;;;19.40;;
51686;SDS011;37774;52.192;4.584;2023-05-07T07:09:09;34.17;;;18.30;;
51686;SDS011;37774;52.192;4.584;2023-05-07T07:11:56;38.22;;;19.95;;
51686;SDS011;37774;52.192;4.584;2023-05-07T07:14:41;46.55;;;20.10;;
51686;SDS011;37774;52.192;4.584;2023-05-07T07:17:27;35.33;;;19.58;;
51686;SDS011;37774;52.192;4.584;2023-05-07T07:20:12;44.38;;;20.38;;
51686;SDS011;37774;52.192;4.584;2023-05-07T07:22:58;36.35;;;19.60;;
51686;SDS011;37774;52.192;4.584;2023-05-07T07:25:44;40.35;;;20.95;;
51686;SDS011;37774;52.192;4.584;2023-05-07T07:28:30;39.72;;;21.02;;
51686;SDS011;37774;52.192;4.584;2023-05-07T07:31:16;36.53;;;19.98;;
51686;SDS011;37774;52.192;4.584;2023-05-07T07:34:01;33.33;;;18.63;;
51686;SDS011;37774;52.192;4.584;2023-05-07T07:36:47;28.63;;;16.48;;
51686;SDS011;37774;52.192;4.584;2023-05-07T07:39:32;34.65;;;20.02;;
51686;SDS011;37774;52.192;4.584;2023-05-07T07:42:18;38.55;;;18.40;;
51686;SDS011;37774;52.192;4.584;2023-05-07T07:45:06;29.05;;;17.30;;
51686;SDS011;37774;52.192;4.584;2023-05-07T07:47:52;33.08;;;17.13;;
51686;SDS011;37774;52.192;4.584;2023-05-07T07:50:38;27.45;;;15.65;;
51686;SDS011;37774;52.192;4.584;2023-05-07T07:53:23;27.63;;;16.75;;
51686;SDS011;37774;52.192;4.584;2023-05-07T07:56:09;26.70;;;14.60;;
51686;SDS011;37774;52.192;4.584;2023-05-07T07:58:54;28.00;;;16.08;;
51686;SDS011;37774;52.192;4.584;2023-05-07T08:01:41;24.60;;;15.00;;
51686;SDS011;37774;52.192;4.584;2023-05-07T08:04:27;27.98;;;14.15;;
51686;SDS011;37774;52.192;4.584;2023-05-07T08:07:12;26.35;;;16.48;;
51686;SDS011;37774;52.192;4.584;2023-05-07T08:09:58;24.98;;;14.30;;
51686;SDS011;37774;52.192;4.584;2023-05-07T08:12:44;25.45;;;15.52;;
51686;SDS011;37774;52.192;4.584;2023-05-07T08:15:29;21.42;;;12.57;;
51686;SDS011;37774;52.192;4.584;2023-05-07T08:18:16;22.10;;;11.88;;
51686;SDS011;37774;52.192;4.584;2023-05-07T08:21:01;21.65;;;11.77;;
51686;SDS011;37774;52.192;4.584;2023-05-07T08:23:47;16.70;;;10.88;;
51686;SDS011;37774;52.192;4.584;2023-05-07T08:26:32;19.67;;;10.88;;
51686;SDS011;37774;52.192;4.584;2023-05-07T08:29:19;21.15;;;11.18;;
51686;SDS011;37774;52.192;4.584;2023-05-07T08:32:05;17.92;;;9.55;;
51686;SDS011;37774;52.192;4.584;2023-05-07T08:34:51;18.30;;;10.40;;
51686;SDS011;37774;52.192;4.584;2023-05-07T08:37:37;17.23;;;9.27;;
51686;SDS011;37774;52.192;4.584;2023-05-07T08:40:22;15.90;;;8.75;;
51686;SDS011;37774;52.192;4.584;2023-05-07T08:43:11;14.93;;;8.52;;
51686;SDS011;37774;52.192;4.584;2023-05-07T08:45:58;16.23;;;9.10;;
51686;SDS011;37774;52.192;4.584;2023-05-07T08:48:47;17.33;;;7.85;;
51686;SDS011;37774;52.192;4.584;2023-05-07T08:51:34;16.13;;;8.20;;
51686;SDS011;37774;52.192;4.584;2023-05-07T08:54:20;14.20;;;8.10;;
51686;SDS011;37774;52.192;4.584;2023-05-07T08:57:06;12.55;;;8.27;;
51686;SDS011;37774;52.192;4.584;2023-05-07T08:59:52;15.35;;;8.85;;
51686;SDS011;37774;52.192;4.584;2023-05-07T09:02:37;13.40;;;8.52;;
51686;SDS011;37774;52.192;4.584;2023-05-07T09:05:22;13.38;;;8.77;;
51686;SDS011;37774;52.192;4.584;2023-05-07T09:08:09;15.00;;;8.02;;
51686;SDS011;37774;52.192;4.584;2023-05-07T09:10:55;19.45;;;8.95;;
51686;SDS011;37774;52.192;4.584;2023-05-07T09:13:40;23.50;;;9.45;;
51686;SDS011;37774;52.192;4.584;2023-05-07T09:16:26;20.45;;;9.63;;
51686;SDS011;37774;52.192;4.584;2023-05-07T09:19:12;16.40;;;9.00;;
51686;SDS011;37774;52.192;4.584;2023-05-07T09:21:57;17.65;;;9.57;;
51686;SDS011;37774;52.192;4.584;2023-05-07T09:24:48;17.70;;;9.27;;
51686;SDS011;37774;52.192;4.584;2023-05-07T09:27:34;18.65;;;8.20;;
51686;SDS011;37774;52.192;4.584;2023-05-07T09:30:20;16.48;;;8.18;;
51686;SDS011;37774;52.192;4.584;2023-05-07T09:33:05;16.23;;;6.97;;
51686;SDS011;37774;52.192;4.584;2023-05-07T09:35:51;12.75;;;7.13;;
51686;SDS011;37774;52.192;4.584;2023-05-07T09:38:36;13.27;;;7.10;;
51686;SDS011;37774;52.192;4.584;2023-05-07T09:41:24;13.13;;;8.53;;
51686;SDS011;37774;52.192;4.584;2023-05-07T09:44:09;11.85;;;5.75;;
51686;SDS011;37774;52.192;4.584;2023-05-07T09:46:55;9.15;;;6.10;;
51686;SDS011;37774;52.192;4.584;2023-05-07T09:49:44;10.68;;;6.03;;
51686;SDS011;37774;52.192;4.584;2023-05-07T09:52:32;13.05;;;6.00;;
51686;SDS011;37774;52.192;4.584;2023-05-07T09:55:19;9.80;;;5.82;;
51686;SDS011;37774;52.192;4.584;2023-05-07T09:58:06;8.40;;;5.03;;
51686;SDS011;37774;52.192;4.584;2023-05-07T10:00:54;15.32;;;5.30;;
51686;SDS011;37774;52.192;4.584;2023-05-07T10:03:41;10.77;;;5.18;;
51686;SDS011;37774;52.192;4.584;2023-05-07T10:06:26;16.02;;;6.50;;
51686;SDS011;37774;52.192;4.584;2023-05-07T10:09:13;16.50;;;7.45;;
51686;SDS011;37774;52.192;4.584;2023-05-07T10:12:00;11.82;;;5.75;;
51686;SDS011;37774;52.192;4.584;2023-05-07T10:14:47;19.80;;;7.45;;
51686;SDS011;37774;52.192;4.584;2023-05-07T10:17:33;8.75;;;5.47;;
51686;SDS011;37774;52.192;4.584;2023-05-07T10:20:20;15.60;;;5.43;;
51686;SDS011;37774;52.192;4.584;2023-05-07T10:23:05;13.63;;;4.78;;
51686;SDS011;37774;52.192;4.584;2023-05-07T10:25:52;7.55;;;3.97;;
51686;SDS011;37774;52.192;4.584;2023-05-07T10:28:39;7.90;;;4.80;;
51686;SDS011;37774;52.192;4.584;2023-05-07T10:31:41;8.32;;;4.70;;
51686;SDS011;37774;52.192;4.584;2023-05-07T10:34:50;9.20;;;4.50;;
51686;SDS011;37774;52.192;4.584;2023-05-07T10:37:39;8.05;;;4.63;;
51686;SDS011;37774;52.192;4.584;2023-05-07T10:40:25;11.57;;;4.50;;
51686;SDS011;37774;52.192;4.584;2023-05-07T10:43:11;7.40;;;3.60;;
51686;SDS011;37774;52.192;4.584;2023-05-07T10:46:09;11.35;;;4.18;;
51686;SDS011;37774;52.192;4.584;2023-05-07T10:49:09;11.68;;;5.22;;
51686;SDS011;37774;52.192;4.584;2023-05-07T10:52:12;6.88;;;4.65;;
51686;SDS011;37774;52.192;4.584;2023-05-07T10:58:24;12.15;;;5.63;;
51686;SDS011;37774;52.192;4.584;2023-05-07T11:01:11;11.73;;;5.35;;
51686;SDS011;37774;52.192;4.584;2023-05-07T11:04:13;8.55;;;5.47;;
51686;SDS011;37774;52.192;4.584;2023-05-07T11:10:12;12.07;;;5.95;;
51686;SDS011;37774;52.192;4.584;2023-05-07T11:12:57;10.68;;;6.40;;
51686;SDS011;37774;52.192;4.584;2023-05-07T11:15:43;18.23;;;6.18;;
51686;SDS011;37774;52.192;4.584;2023-05-07T11:18:42;10.65;;;6.00;;
51686;SDS011;37774;52.192;4.584;2023-05-07T11:21:33;13.40;;;5.75;;
51686;SDS011;37774;52.192;4.584;2023-05-07T11:24:19;6.30;;;4.55;;
51686;SDS011;37774;52.192;4.584;2023-05-07T11:27:05;10.27;;;5.50;;
51686;SDS011;37774;52.192;4.584;2023-05-07T11:29:51;11.13;;;5.57;;
51686;SDS011;37774;52.192;4.584;2023-05-07T11:32:36;9.98;;;4.95;;
51686;SDS011;37774;52.192;4.584;2023-05-07T11:35:22;9.05;;;3.80;;
51686;SDS011;37774;52.192;4.584;2023-05-07T11:38:09;9.68;;;5.47;;
51686;SDS011;37774;52.192;4.584;2023-05-07T11:43:55;14.95;;;4.93;;
51686;SDS011;37774;52.192;4.584;2023-05-07T11:46:42;9.02;;;5.72;;
51686;SDS011;37774;52.192;4.584;2023-05-07T11:49:29;11.20;;;5.13;;
51686;SDS011;37774;52.192;4.584;2023-05-07T11:52:15;8.77;;;5.38;;
51686;SDS011;37774;52.192;4.584;2023-05-07T11:55:02;11.13;;;5.57;;
51686;SDS011;37774;52.192;4.584;2023-05-07T11:57:48;9.13;;;5.70;;
51686;SDS011;37774;52.192;4.584;2023-05-07T12:00:34;8.82;;;5.85;;
51686;SDS011;37774;52.192;4.584;2023-05-07T12:03:19;9.00;;;5.63;;
51686;SDS011;37774;52.192;4.584;2023-05-07T12:06:05;11.13;;;5.55;;
51686;SDS011;37774;52.192;4.584;2023-05-07T12:08:51;11.32;;;5.13;;
51686;SDS011;37774;52.192;4.584;2023-05-07T12:14:27;5.57;;;1.80;;
51686;SDS011;37774;52.192;4.584;2023-05-07T12:17:13;7.78;;;2.25;;
51686;SDS011;37774;52.192;4.584;2023-05-07T12:19:59;6.90;;;1.88;;
51686;SDS011;37774;52.192;4.584;2023-05-07T12:22:45;4.45;;;2.40;;
51686;SDS011;37774;52.192;4.584;2023-05-07T12:25:31;6.47;;;2.53;;
51686;SDS011;37774;52.192;4.584;2023-05-07T12:28:19;15.05;;;5.72;;
51686;SDS011;37774;52.192;4.584;2023-05-07T12:31:04;11.50;;;7.15;;
51686;SDS011;37774;52.192;4.584;2023-05-07T12:33:50;12.73;;;7.90;;
51686;SDS011;37774;52.192;4.584;2023-05-07T12:36:36;12.98;;;8.38;;
51686;SDS011;37774;52.192;4.584;2023-05-07T12:39:22;18.33;;;9.90;;
51686;SDS011;37774;52.192;4.584;2023-05-07T12:42:07;18.15;;;9.27;;
51686;SDS011;37774;52.192;4.584;2023-05-07T12:44:54;14.98;;;8.57;;
51686;SDS011;37774;52.192;4.584;2023-05-07T12:47:39;25.05;;;10.52;;
51686;SDS011;37774;52.192;4.584;2023-05-07T12:50:30;20.92;;;9.30;;
51686;SDS011;37774;52.192;4.584;2023-05-07T12:53:19;19.48;;;9.38;;
51686;SDS011;37774;52.192;4.584;2023-05-07T12:56:06;22.38;;;9.45;;
51686;SDS011;37774;52.192;4.584;2023-05-07T12:58:51;25.63;;;10.07;;
51686;SDS011;37774;52.192;4.584;2023-05-07T13:01:38;20.90;;;9.52;;
51686;SDS011;37774;52.192;4.584;2023-05-07T13:04:24;18.48;;;10.70;;
51686;SDS011;37774;52.192;4.584;2023-05-07T13:07:09;19.17;;;9.85;;
51686;SDS011;37774;52.192;4.584;2023-05-07T13:09:55;21.85;;;10.68;;
51686;SDS011;37774;52.192;4.584;2023-05-07T13:12:40;22.00;;;10.00;;
51686;SDS011;37774;52.192;4.584;2023-05-07T13:15:26;21.42;;;9.50;;
51686;SDS011;37774;52.192;4.584;2023-05-07T13:18:13;16.33;;;8.15;;
51686;SDS011;37774;52.192;4.584;2023-05-07T13:20:58;22.10;;;9.60;;
51686;SDS011;37774;52.192;4.584;2023-05-07T13:23:44;16.67;;;8.60;;
51686;SDS011;37774;52.192;4.584;2023-05-07T13:26:31;24.55;;;9.57;;
51686;SDS011;37774;52.192;4.584;2023-05-07T13:29:16;16.30;;;7.78;;
51686;SDS011;37774;52.192;4.584;2023-05-07T13:32:02;13.93;;;8.00;;
51686;SDS011;37774;52.192;4.584;2023-05-07T13:34:49;23.73;;;7.72;;
51686;SDS011;37774;52.192;4.584;2023-05-07T13:37:34;15.48;;;7.88;;
51686;SDS011;37774;52.192;4.584;2023-05-07T13:40:20;14.38;;;7.30;;
51686;SDS011;37774;52.192;4.584;2023-05-07T13:43:06;17.58;;;6.75;;
51686;SDS011;37774;52.192;4.584;2023-05-07T13:45:52;16.25;;;8.40;;
51686;SDS011;37774;52.192;4.584;2023-05-07T13:48:37;20.05;;;8.93;;
51686;SDS011;37774;52.192;4.584;2023-05-07T13:51:24;18.65;;;8.15;;
51686;SDS011;37774;52.192;4.584;2023-05-07T13:54:09;16.75;;;8.23;;
51686;SDS011;37774;52.192;4.584;2023-05-07T13:56:55;15.45;;;7.93;;
51686;SDS011;37774;52.192;4.584;2023-05-07T13:59:41;18.08;;;8.43;;
51686;SDS011;37774;52.192;4.584;2023-05-07T14:02:27;18.50;;;8.60;;
51686;SDS011;37774;52.192;4.584;2023-05-07T14:05:12;20.02;;;8.55;;
51686;SDS011;37774;52.192;4.584;2023-05-07T14:07:59;13.80;;;7.88;;
51686;SDS011;37774;52.192;4.584;2023-05-07T14:10:45;11.48;;;7.35;;
51686;SDS011;37774;52.192;4.584;2023-05-07T14:13:31;13.10;;;7.70;;
51686;SDS011;37774;52.192;4.584;2023-05-07T14:16:17;10.35;;;6.88;;
51686;SDS011;37774;52.192;4.584;2023-05-07T14:19:03;14.48;;;7.03;;
51686;SDS011;37774;52.192;4.584;2023-05-07T14:21:48;20.15;;;7.80;;
51686;SDS011;37774;52.192;4.584;2023-05-07T14:24:35;19.42;;;8.25;;
51686;SDS011;37774;52.192;4.584;2023-05-07T14:27:22;20.67;;;8.68;;
51686;SDS011;37774;52.192;4.584;2023-05-07T14:30:08;16.50;;;7.82;;
51686;SDS011;37774;52.192;4.584;2023-05-07T14:32:54;14.85;;;8.18;;
51686;SDS011;37774;52.192;4.584;2023-05-07T14:35:39;12.27;;;8.50;;
51686;SDS011;37774;52.192;4.584;2023-05-07T14:38:25;17.05;;;9.15;;
51686;SDS011;37774;52.192;4.584;2023-05-07T14:41:12;17.75;;;9.05;;
51686;SDS011;37774;52.192;4.584;2023-05-07T14:46:43;21.33;;;9.60;;
51686;SDS011;37774;52.192;4.584;2023-05-07T14:49:28;23.23;;;12.15;;
51686;SDS011;37774;52.192;4.584;2023-05-07T14:52:13;21.67;;;11.38;;
51686;SDS011;37774;52.192;4.584;2023-05-07T14:54:59;21.40;;;10.43;;
51686;SDS011;37774;52.192;4.584;2023-05-07T14:57:46;24.77;;;12.07;;
51686;SDS011;37774;52.192;4.584;2023-05-07T15:00:32;21.67;;;11.90;;
51686;SDS011;37774;52.192;4.584;2023-05-07T15:03:18;21.40;;;13.25;;
51686;SDS011;37774;52.192;4.584;2023-05-07T15:06:03;31.40;;;12.52;;
51686;SDS011;37774;52.192;4.584;2023-05-07T15:08:48;28.55;;;13.63;;
51686;SDS011;37774;52.192;4.584;2023-05-07T15:11:34;28.70;;;13.57;;
51686;SDS011;37774;52.192;4.584;2023-05-07T15:14:21;20.23;;;11.40;;
51686;SDS011;37774;52.192;4.584;2023-05-07T15:17:06;15.35;;;10.48;;
51686;SDS011;37774;52.192;4.584;2023-05-07T15:19:52;17.13;;;10.50;;
51686;SDS011;37774;52.192;4.584;2023-05-07T15:22:37;21.50;;;11.82;;
51686;SDS011;37774;52.192;4.584;2023-05-07T15:25:23;26.50;;;12.43;;
51686;SDS011;37774;52.192;4.584;2023-05-07T15:28:08;23.40;;;12.43;;
51686;SDS011;37774;52.192;4.584;2023-05-07T15:30:55;26.27;;;12.25;;
51686;SDS011;37774;52.192;4.584;2023-05-07T15:33:40;22.30;;;12.32;;
51686;SDS011;37774;52.192;4.584;2023-05-07T15:36:26;26.08;;;13.70;;
51686;SDS011;37774;52.192;4.584;2023-05-07T15:39:11;21.80;;;13.07;;
51686;SDS011;37774;52.192;4.584;2023-05-07T15:41:57;25.98;;;13.75;;
51686;SDS011;37774;52.192;4.584;2023-05-07T15:44:42;25.63;;;14.55;;
51686;SDS011;37774;52.192;4.584;2023-05-07T15:47:29;23.88;;;13.63;;
51686;SDS011;37774;52.192;4.584;2023-05-07T15:50:18;27.63;;;15.50;;
51686;SDS011;37774;52.192;4.584;2023-05-07T15:53:03;30.35;;;15.30;;
51686;SDS011;37774;52.192;4.584;2023-05-07T15:55:49;32.80;;;15.65;;
51686;SDS011;37774;52.192;4.584;2023-05-07T15:58:34;24.00;;;14.95;;
51686;SDS011;37774;52.192;4.584;2023-05-07T16:01:20;29.38;;;15.85;;
51686;SDS011;37774;52.192;4.584;2023-05-07T16:04:07;26.70;;;15.10;;
51686;SDS011;37774;52.192;4.584;2023-05-07T16:06:53;29.45;;;14.43;;
51686;SDS011;37774;52.192;4.584;2023-05-07T16:09:39;26.77;;;15.45;;
51686;SDS011;37774;52.192;4.584;2023-05-07T16:12:24;25.88;;;14.35;;
51686;SDS011;37774;52.192;4.584;2023-05-07T16:15:10;34.20;;;14.45;;
51686;SDS011;37774;52.192;4.584;2023-05-07T16:17:56;32.83;;;12.73;;
51686;SDS011;37774;52.192;4.584;2023-05-07T16:20:43;24.48;;;14.73;;
51686;SDS011;37774;52.192;4.584;2023-05-07T16:23:29;23.55;;;13.38;;
51686;SDS011;37774;52.192;4.584;2023-05-07T16:26:15;26.85;;;14.30;;
51686;SDS011;37774;52.192;4.584;2023-05-07T16:29:02;22.17;;;13.40;;
51686;SDS011;37774;52.192;4.584;2023-05-07T16:31:48;26.92;;;13.20;;
51686;SDS011;37774;52.192;4.584;2023-05-07T16:34:34;28.98;;;12.30;;
51686;SDS011;37774;52.192;4.584;2023-05-07T16:37:21;26.88;;;12.60;;